createdAt,value
2018-06-12T00:00:19.459Z,8.20
2018-06-12T00:02:48.228Z,9.73
2018-06-12T00:05:16.998Z,9.03
2018-06-12T00:07:45.861Z,8.43
2018-06-12T00:10:14.789Z,8.70
2018-06-12T00:12:43.598Z,9.00
2018-06-12T00:15:12.343Z,8.97
2018-06-12T00:17:41.095Z,9.50
2018-06-12T00:20:09.858Z,9.60
2018-06-12T00:22:38.677Z,8.20
2018-06-12T00:25:07.460Z,8.30
2018-06-12T00:27:36.214Z,9.00
2018-06-12T00:30:05.004Z,8.53
2018-06-12T00:32:33.811Z,8.67
2018-06-12T00:35:02.573Z,9.30
2018-06-12T00:37:31.360Z,9.70
2018-06-12T00:40:00.117Z,8.60
2018-06-12T00:42:28.892Z,10.23
2018-06-12T00:44:57.676Z,9.90
2018-06-12T00:47:26.446Z,10.00
2018-06-12T00:49:55.339Z,11.07
2018-06-12T00:52:24.111Z,10.47
2018-06-12T00:54:52.941Z,10.50
2018-06-12T00:57:21.766Z,9.80
2018-06-12T00:59:50.550Z,10.10
2018-06-12T01:02:19.331Z,9.77
2018-06-12T01:04:48.091Z,9.93
2018-06-12T01:07:16.930Z,10.87
2018-06-12T01:09:45.690Z,9.33
2018-06-12T01:12:14.471Z,10.97
2018-06-12T01:14:43.252Z,10.10
2018-06-12T01:17:12.064Z,10.33
2018-06-12T01:19:40.837Z,11.47
2018-06-12T01:22:09.703Z,10.47
2018-06-12T01:24:38.498Z,11.13
2018-06-12T01:27:07.284Z,10.57
2018-06-12T01:29:36.061Z,10.70
2018-06-12T01:32:04.933Z,10.93
2018-06-12T01:34:33.835Z,10.37
2018-06-12T01:37:02.596Z,11.00
2018-06-12T01:39:31.461Z,11.30
2018-06-12T01:42:00.229Z,11.40
2018-06-12T01:44:29.134Z,10.77
2018-06-12T01:46:57.908Z,10.13
2018-06-12T01:49:26.656Z,12.00
2018-06-12T01:51:55.447Z,10.80
2018-06-12T01:54:24.210Z,10.67
2018-06-12T01:56:53.059Z,10.63
2018-06-12T01:59:21.816Z,10.13
2018-06-12T02:01:50.652Z,11.23
2018-06-12T02:04:19.422Z,10.43
2018-06-12T02:06:48.293Z,10.20
2018-06-12T02:09:17.080Z,9.93
2018-06-12T02:11:45.854Z,9.87
2018-06-12T02:14:14.610Z,9.87
2018-06-12T02:16:43.388Z,9.70
2018-06-12T02:19:12.165Z,9.97
2018-06-12T02:21:40.993Z,10.80
2018-06-12T02:24:09.923Z,10.30
2018-06-12T02:26:38.684Z,9.80
2018-06-12T02:29:07.482Z,9.60
2018-06-12T02:31:36.261Z,10.20
2018-06-12T02:34:05.113Z,10.13
2018-06-12T02:36:33.923Z,9.57
2018-06-12T02:39:02.715Z,9.90
2018-06-12T02:41:31.479Z,10.13
2018-06-12T02:44:00.262Z,10.53
2018-06-12T02:46:29.089Z,10.20
2018-06-12T02:48:57.981Z,9.63
2018-06-12T02:51:26.774Z,9.47
2018-06-12T02:53:55.605Z,10.00
2018-06-12T02:56:24.407Z,10.03
2018-06-12T02:58:53.127Z,9.90
2018-06-12T03:01:21.913Z,10.00
2018-06-12T03:03:50.711Z,9.90
2018-06-12T03:06:19.507Z,10.50
2018-06-12T03:08:48.309Z,9.80
2018-06-12T03:11:17.091Z,10.00
2018-06-12T03:13:45.901Z,10.33
2018-06-12T03:16:14.752Z,9.87
2018-06-12T03:18:43.527Z,9.77
2018-06-12T03:21:12.322Z,8.53
2018-06-12T03:23:41.073Z,8.13
2018-06-12T03:26:09.829Z,8.97
2018-06-12T03:28:38.625Z,8.50
2018-06-12T03:31:07.400Z,8.83
2018-06-12T03:33:36.184Z,8.60
2018-06-12T03:36:04.991Z,13.20
2018-06-12T03:38:33.789Z,14.50
2018-06-12T03:41:02.577Z,14.53
2018-06-12T03:43:31.395Z,11.60
2018-06-12T03:46:00.171Z,9.57
2018-06-12T03:48:28.950Z,9.70
2018-06-12T03:50:57.709Z,9.87
2018-06-12T03:53:26.531Z,8.87
2018-06-12T03:55:55.311Z,9.40
2018-06-12T03:58:24.118Z,8.83
2018-06-12T04:00:52.876Z,7.53
2018-06-12T04:03:21.657Z,8.07
2018-06-12T04:05:50.498Z,7.73
2018-06-12T04:08:19.260Z,8.87
2018-06-12T04:10:48.019Z,8.90
2018-06-12T04:13:16.867Z,7.87
2018-06-12T04:15:45.741Z,8.10
2018-06-12T04:18:14.560Z,8.83
2018-06-12T04:20:43.315Z,7.80
2018-06-12T04:23:12.079Z,8.88
2018-06-12T04:25:40.867Z,9.25
2018-06-12T04:28:09.668Z,9.28
2018-06-12T04:30:38.427Z,7.53
2018-06-12T04:33:07.195Z,8.60
2018-06-12T04:35:35.998Z,7.90
2018-06-12T04:38:04.835Z,7.42
2018-06-12T04:40:33.657Z,7.97
2018-06-12T04:43:02.767Z,7.17
2018-06-12T04:45:31.601Z,7.92
2018-06-12T04:48:00.373Z,8.05
2018-06-12T04:50:29.151Z,7.78
2018-06-12T04:52:57.883Z,7.67
2018-06-12T04:55:26.776Z,8.43
2018-06-12T04:57:55.553Z,8.40
2018-06-12T05:00:24.361Z,8.73
2018-06-12T05:02:53.132Z,9.13
2018-06-12T05:05:21.981Z,9.43
2018-06-12T05:07:50.750Z,9.10
2018-06-12T05:10:19.510Z,8.88
2018-06-12T05:12:48.289Z,9.23
2018-06-12T05:15:17.097Z,9.10
2018-06-12T05:17:45.841Z,9.30
2018-06-12T05:20:14.607Z,9.88
2018-06-12T05:22:43.513Z,10.30
2018-06-12T05:25:12.304Z,12.20
2018-06-12T05:27:41.116Z,11.68
2018-06-12T05:30:09.905Z,10.65
2018-06-12T05:32:38.701Z,9.93
2018-06-12T05:35:07.469Z,9.50
2018-06-12T05:37:36.313Z,10.08
2018-06-12T05:40:05.176Z,10.23
2018-06-12T05:42:33.933Z,11.25
2018-06-12T05:45:02.791Z,11.23
2018-06-12T05:47:31.647Z,10.10
2018-06-12T05:50:00.464Z,10.53
2018-06-12T05:52:29.241Z,10.93
2018-06-12T05:54:58.034Z,10.90
2018-06-12T05:57:26.820Z,11.30
2018-06-12T05:59:55.656Z,11.30
2018-06-12T06:02:24.472Z,11.20
2018-06-12T06:04:53.287Z,11.23
2018-06-12T06:07:22.128Z,12.37
2018-06-12T06:16:34.400Z,10.93
2018-06-12T06:19:03.208Z,11.43
2018-06-12T06:21:32.010Z,11.23
2018-06-12T06:24:00.851Z,9.53
2018-06-12T06:26:29.612Z,11.00
2018-06-12T06:28:58.462Z,10.73
2018-06-12T06:31:27.249Z,11.27
2018-06-12T06:33:56.101Z,11.60
2018-06-12T06:36:24.877Z,10.47
2018-06-12T06:38:53.651Z,11.20
2018-06-12T06:41:22.516Z,10.10
2018-06-12T06:43:51.367Z,10.40
2018-06-12T06:46:20.162Z,11.77
2018-06-12T06:48:48.967Z,10.83
2018-06-12T06:51:17.854Z,10.10
2018-06-12T06:53:46.673Z,10.53
2018-06-12T06:56:15.528Z,10.13
2018-06-12T06:58:44.363Z,9.80
2018-06-12T07:01:13.138Z,9.87
2018-06-12T07:03:41.917Z,10.13
2018-06-12T07:06:10.670Z,10.67
2018-06-12T07:08:39.469Z,10.40
2018-06-12T07:11:08.299Z,12.13
2018-06-12T07:13:37.248Z,11.77
2018-06-12T07:16:06.125Z,9.77
2018-06-12T07:18:35.058Z,10.97
2018-06-12T07:21:07.465Z,10.20
2018-06-12T07:23:36.328Z,10.70
2018-06-12T07:26:05.159Z,10.23
2018-06-12T07:28:33.945Z,11.73
2018-06-12T07:31:02.773Z,11.30
2018-06-12T07:33:31.598Z,10.73
2018-06-12T07:36:00.498Z,11.13
2018-06-12T07:38:29.370Z,11.47
2018-06-12T07:40:58.162Z,11.37
2018-06-12T07:43:26.957Z,9.80
2018-06-12T07:45:55.740Z,10.83
2018-06-12T07:48:24.539Z,10.37
2018-06-12T07:50:53.315Z,11.30
2018-06-12T07:53:22.119Z,10.23
2018-06-12T07:55:50.916Z,10.70
2018-06-12T07:58:19.781Z,10.53
2018-06-12T08:00:48.559Z,10.27
2018-06-12T08:03:17.356Z,10.53
2018-06-12T08:05:46.210Z,11.93
2018-06-12T08:08:14.992Z,11.37
2018-06-12T08:10:43.788Z,10.43
2018-06-12T08:13:12.603Z,10.90
2018-06-12T08:15:41.371Z,10.40
2018-06-12T08:18:10.161Z,10.67
2018-06-12T08:20:39.027Z,10.50
2018-06-12T08:23:07.843Z,10.47
2018-06-12T08:25:36.625Z,10.47
2018-06-12T08:28:05.420Z,10.70
2018-06-12T08:30:34.313Z,9.87
2018-06-12T08:33:03.110Z,10.63
2018-06-12T08:35:31.956Z,10.77
2018-06-12T08:38:00.808Z,11.67
2018-06-12T08:40:29.616Z,10.80
2018-06-12T08:42:58.522Z,11.37
2018-06-12T08:45:27.362Z,10.90
2018-06-12T08:47:56.147Z,11.63
2018-06-12T08:50:24.991Z,11.17
2018-06-12T08:52:53.768Z,11.20
2018-06-12T08:55:22.626Z,11.50
2018-06-12T08:57:51.464Z,12.17
2018-06-12T09:00:20.259Z,11.63
2018-06-12T09:02:49.016Z,12.20
2018-06-12T09:05:17.913Z,11.73
2018-06-12T09:07:47.287Z,12.57
2018-06-12T09:10:16.108Z,12.80
2018-06-12T09:12:45.843Z,11.63
2018-06-12T09:15:14.707Z,12.93
2018-06-12T09:17:43.544Z,13.47
2018-06-12T09:20:12.500Z,13.37
2018-06-12T09:22:41.268Z,12.30
2018-06-12T09:25:10.049Z,13.43
2018-06-12T09:27:44.024Z,11.37
2018-06-12T09:30:12.902Z,12.53
2018-06-12T09:32:41.730Z,11.43
2018-06-12T09:35:10.526Z,13.77
2018-06-12T09:37:39.291Z,14.53
2018-06-12T09:40:08.138Z,14.10
2018-06-12T09:42:36.957Z,14.23
2018-06-12T09:45:06.060Z,14.27
2018-06-12T09:47:34.840Z,13.77
2018-06-12T09:50:03.791Z,13.67
2018-06-12T09:52:32.625Z,14.50
2018-06-12T09:55:01.447Z,14.33
2018-06-12T09:57:30.260Z,15.07
2018-06-12T09:59:59.042Z,14.70
2018-06-12T10:02:27.892Z,14.23
2018-06-12T10:04:56.697Z,15.47
2018-06-12T10:07:25.492Z,14.47
2018-06-12T10:09:54.298Z,16.47
2018-06-12T10:12:23.136Z,16.30
2018-06-12T10:14:51.995Z,15.43
2018-06-12T10:17:20.795Z,16.53
2018-06-12T10:19:49.569Z,15.67
2018-06-12T10:22:18.398Z,18.07
2018-06-12T10:24:47.167Z,15.60
2018-06-12T10:27:16.004Z,14.50
2018-06-12T10:29:44.816Z,16.00
2018-06-12T10:32:13.653Z,17.20
2018-06-12T10:34:42.610Z,16.77
2018-06-12T10:37:11.465Z,16.10
2018-06-12T10:39:40.252Z,13.63
2018-06-12T10:42:09.082Z,15.13
2018-06-12T10:44:37.939Z,14.67
2018-06-12T10:47:06.772Z,14.47
2018-06-12T10:49:35.588Z,13.87
2018-06-12T10:52:04.356Z,13.93
2018-06-12T10:54:33.281Z,13.90
2018-06-12T10:57:02.226Z,13.03
2018-06-12T10:59:31.036Z,13.47
2018-06-12T11:01:59.817Z,14.33
2018-06-12T11:04:28.612Z,14.90
2018-06-12T11:06:57.439Z,14.43
2018-06-12T11:09:26.305Z,14.20
2018-06-12T11:11:55.118Z,14.87
2018-06-12T11:14:23.935Z,15.13
2018-06-12T11:16:53.337Z,15.03
2018-06-12T11:19:22.221Z,14.17
2018-06-12T11:21:51.081Z,13.67
2018-06-12T11:24:19.938Z,15.30
2018-06-12T11:26:48.736Z,14.13
2018-06-12T11:29:17.573Z,14.83
2018-06-12T11:31:46.373Z,14.20
2018-06-12T11:34:15.213Z,14.90
2018-06-12T11:36:44.123Z,14.27
2018-06-12T11:39:12.915Z,14.07
2018-06-12T11:41:41.848Z,13.73
2018-06-12T11:44:10.673Z,14.17
2018-06-12T11:46:39.689Z,14.13
2018-06-12T11:49:08.563Z,13.40
2018-06-12T11:51:37.430Z,13.60
2018-06-12T11:54:06.248Z,13.93
2018-06-12T11:56:35.045Z,13.63
2018-06-12T11:59:03.830Z,14.50
2018-06-12T12:01:32.660Z,14.00
2018-06-12T12:04:01.573Z,14.83
2018-06-12T12:06:30.363Z,13.77
2018-06-12T12:08:59.180Z,15.30
2018-06-12T12:11:28.052Z,14.40
2018-06-12T12:13:56.848Z,14.17
2018-06-12T12:16:26.361Z,14.60
2018-06-12T12:18:55.252Z,12.90
2018-06-12T12:21:24.076Z,12.33
2018-06-12T12:23:52.902Z,12.97
2018-06-12T12:26:21.797Z,13.63
2018-06-12T12:28:50.598Z,13.77
2018-06-12T12:31:19.381Z,12.80
2018-06-12T12:33:48.201Z,13.63
2018-06-12T12:36:16.999Z,14.20
2018-06-12T12:38:45.842Z,13.87
2018-06-12T12:41:14.664Z,12.20
2018-06-12T12:43:43.538Z,12.43
2018-06-12T12:46:12.324Z,14.57
2018-06-12T12:48:41.191Z,12.03
2018-06-12T12:51:10.030Z,12.93
2018-06-12T12:53:39.495Z,11.87
2018-06-12T12:56:08.350Z,12.87
2018-06-12T12:58:37.209Z,12.27
2018-06-12T13:01:06.121Z,13.50
2018-06-12T13:03:34.951Z,12.93
2018-06-12T13:06:03.756Z,11.63
2018-06-12T13:08:32.601Z,9.97
2018-06-12T13:11:01.452Z,8.77
2018-06-12T13:13:30.312Z,10.40
2018-06-12T13:15:59.159Z,10.60
2018-06-12T13:18:27.963Z,10.23
2018-06-12T13:20:56.844Z,10.90
2018-06-12T13:23:25.661Z,8.93
2018-06-12T13:25:54.457Z,10.67
2018-06-12T13:28:23.240Z,11.70
2018-06-12T13:30:52.077Z,10.47
2018-06-12T13:33:21.101Z,10.37
2018-06-12T13:35:49.908Z,10.77
2018-06-12T13:38:18.727Z,10.17
2018-06-12T13:40:47.593Z,10.70
2018-06-12T13:43:16.406Z,11.93
2018-06-12T13:45:45.201Z,11.53
2018-06-12T13:48:14.000Z,10.80
2018-06-12T13:50:42.845Z,11.43
2018-06-12T13:53:11.726Z,11.37
2018-06-12T13:55:40.755Z,10.93
2018-06-12T13:58:09.611Z,10.33
2018-06-12T14:00:38.692Z,9.90
2018-06-12T14:03:07.757Z,10.10
2018-06-12T14:05:37.161Z,10.70
2018-06-12T14:08:06.060Z,10.97
2018-06-12T14:10:34.850Z,11.27
2018-06-12T14:13:03.717Z,11.87
2018-06-12T14:15:32.562Z,12.33
2018-06-12T14:18:01.412Z,11.50
2018-06-12T14:20:30.204Z,12.97
2018-06-12T14:22:59.076Z,13.60
2018-06-12T14:25:27.860Z,12.43
2018-06-12T14:27:56.668Z,12.93
2018-06-12T14:30:25.432Z,13.77
2018-06-12T14:32:54.225Z,12.77
2018-06-12T14:35:23.023Z,13.73
2018-06-12T14:37:51.972Z,13.30
2018-06-12T14:40:20.786Z,12.87
2018-06-12T14:42:49.568Z,14.47
2018-06-12T14:45:18.388Z,12.97
2018-06-12T14:47:47.218Z,14.00
2018-06-12T14:50:16.061Z,13.17
2018-06-12T14:52:44.879Z,13.70
2018-06-12T14:55:13.653Z,12.73
2018-06-12T14:57:42.490Z,13.47
2018-06-12T15:00:11.302Z,16.00
2018-06-12T15:02:40.181Z,14.10
2018-06-12T15:05:08.985Z,14.30
2018-06-12T15:07:37.819Z,13.47
2018-06-12T15:10:06.751Z,13.07
2018-06-12T15:12:35.567Z,13.87
2018-06-12T15:15:04.405Z,12.77
2018-06-12T15:17:33.181Z,15.83
2018-06-12T15:20:01.978Z,20.27
2018-06-12T15:22:30.786Z,17.47
2018-06-12T15:24:59.664Z,13.33
2018-06-12T15:27:28.453Z,12.67
2018-06-12T15:29:57.248Z,12.83
2018-06-12T15:32:26.132Z,13.00
2018-06-12T15:34:54.938Z,13.37
2018-06-12T15:37:23.725Z,12.70
2018-06-12T15:39:52.511Z,12.90
2018-06-12T15:42:21.305Z,20.17
2018-06-12T15:44:50.138Z,14.23
2018-06-12T15:47:20.191Z,13.73
2018-06-12T15:49:49.032Z,13.37
2018-06-12T15:52:17.979Z,13.60
2018-06-12T15:54:47.809Z,13.47
2018-06-12T15:57:16.625Z,14.53
2018-06-12T15:59:45.495Z,21.93
2018-06-12T16:02:14.331Z,14.60
2018-06-12T16:04:43.179Z,14.77
2018-06-12T16:07:12.005Z,12.53
2018-06-12T16:09:40.882Z,14.00
2018-06-12T16:12:09.689Z,13.47
2018-06-12T16:14:38.513Z,12.93
2018-06-12T16:17:07.332Z,14.03
2018-06-12T16:19:36.118Z,13.80
2018-06-12T16:22:04.931Z,13.90
2018-06-12T16:24:33.738Z,13.47
2018-06-12T16:27:02.524Z,12.87
2018-06-12T16:29:31.330Z,14.37
2018-06-12T16:32:00.162Z,13.47
2018-06-12T16:34:29.132Z,13.50
2018-06-12T16:36:57.922Z,12.97
2018-06-12T16:39:27.466Z,14.33
2018-06-12T16:41:56.263Z,14.30
2018-06-12T16:44:25.080Z,14.47
2018-06-12T16:46:53.873Z,14.73
2018-06-12T16:49:22.722Z,14.40
2018-06-12T16:51:51.505Z,15.50
2018-06-12T16:54:20.421Z,14.93
2018-06-12T16:56:49.390Z,15.80
2018-06-12T16:59:18.223Z,16.10
2018-06-12T17:01:47.024Z,16.10
2018-06-12T17:04:15.864Z,16.63
2018-06-12T17:06:44.675Z,16.13
2018-06-12T17:09:13.532Z,16.60
2018-06-12T17:11:42.428Z,16.33
2018-06-12T17:14:11.222Z,16.93
2018-06-12T17:16:40.115Z,16.07
2018-06-12T17:19:08.940Z,22.00
2018-06-12T17:21:37.752Z,22.63
2018-06-12T17:24:06.576Z,17.63
2018-06-12T17:26:35.411Z,16.03
2018-06-12T17:29:04.253Z,17.00
2018-06-12T17:31:33.130Z,16.33
2018-06-12T17:34:01.976Z,17.67
2018-06-12T17:36:30.769Z,18.87
2018-06-12T17:38:59.659Z,17.47
2018-06-12T17:41:28.594Z,18.60
2018-06-12T17:43:57.374Z,30.10
2018-06-12T17:46:26.209Z,20.57
2018-06-12T17:48:55.173Z,19.13
2018-06-12T17:51:23.983Z,17.70
2018-06-12T17:53:52.884Z,17.27
2018-06-12T17:56:21.769Z,18.80
2018-06-12T17:58:50.597Z,19.60
2018-06-12T18:01:19.523Z,18.30
2018-06-12T18:03:48.375Z,19.13
2018-06-12T18:06:17.202Z,18.43
2018-06-12T18:08:46.019Z,19.57
2018-06-12T18:11:14.846Z,19.27
2018-06-12T18:13:43.954Z,19.70
2018-06-12T18:16:12.813Z,19.40
2018-06-12T18:18:41.640Z,19.70
2018-06-12T18:21:10.522Z,19.37
2018-06-12T18:23:39.413Z,18.97
2018-06-12T18:26:08.593Z,19.53
2018-06-12T18:28:37.455Z,19.47
2018-06-12T18:31:06.271Z,20.80
2018-06-12T18:33:35.138Z,19.27
2018-06-12T18:36:04.047Z,19.10
2018-06-12T18:38:32.861Z,19.83
2018-06-12T18:41:01.684Z,21.40
2018-06-12T18:43:30.571Z,20.20
2018-06-12T18:45:59.436Z,19.87
2018-06-12T18:48:28.210Z,19.60
2018-06-12T18:50:57.082Z,20.30
2018-06-12T18:53:25.899Z,19.07
2018-06-12T18:55:54.800Z,20.20
2018-06-12T18:58:23.628Z,18.93
2018-06-12T19:00:52.757Z,19.30
2018-06-12T19:03:21.625Z,19.40
2018-06-12T19:05:50.463Z,19.00
2018-06-12T19:08:19.400Z,19.20
2018-06-12T19:10:48.296Z,19.00
2018-06-12T19:13:17.970Z,18.27
2018-06-12T19:15:46.775Z,17.73
2018-06-12T19:18:15.608Z,19.00
2018-06-12T19:20:44.429Z,18.57
2018-06-12T19:23:13.271Z,18.13
2018-06-12T19:25:42.060Z,17.93
2018-06-12T19:28:11.085Z,19.33
2018-06-12T19:30:39.966Z,18.27
2018-06-12T19:33:08.788Z,18.03
2018-06-12T19:35:37.563Z,18.57
2018-06-12T19:38:06.380Z,18.57
2018-06-12T19:40:35.209Z,18.37
2018-06-12T19:43:03.988Z,18.57
2018-06-12T19:45:32.765Z,18.57
2018-06-12T19:48:01.692Z,18.33
2018-06-12T19:50:30.646Z,18.67
2018-06-12T19:52:59.558Z,19.67
2018-06-12T19:55:28.366Z,18.83
2018-06-12T19:57:57.175Z,18.50
2018-06-12T20:00:26.186Z,18.97
2018-06-12T20:02:54.910Z,18.60
2018-06-12T20:05:23.724Z,18.90
2018-06-12T20:07:52.532Z,19.00
2018-06-12T20:10:21.329Z,18.50
2018-06-12T20:12:50.331Z,19.50
2018-06-12T20:15:19.134Z,18.60
2018-06-12T20:17:47.893Z,19.40
2018-06-12T20:20:16.689Z,19.57
2018-06-12T20:22:45.556Z,18.57
2018-06-12T20:25:14.455Z,18.27
2018-06-12T20:27:43.291Z,17.10
2018-06-12T20:30:12.119Z,17.87
2018-06-12T20:32:40.946Z,18.33
2018-06-12T20:35:10.331Z,18.03
2018-06-12T20:37:39.190Z,18.87
2018-06-12T20:40:08.059Z,21.50
2018-06-12T20:42:36.920Z,19.50
2018-06-12T20:45:05.842Z,19.10
2018-06-12T20:47:34.628Z,18.67
2018-06-12T20:50:04.173Z,19.03
2018-06-12T20:52:32.946Z,17.40
2018-06-12T20:55:01.780Z,17.40
2018-06-12T20:57:30.595Z,18.20
2018-06-12T20:59:59.428Z,17.00
2018-06-12T21:02:28.189Z,16.57
2018-06-12T21:04:56.952Z,17.63
2018-06-12T21:07:25.834Z,17.53
2018-06-12T21:09:54.632Z,18.00
2018-06-12T21:12:23.449Z,17.37
2018-06-12T21:14:52.301Z,17.77
2018-06-12T21:17:21.061Z,17.50
2018-06-12T21:19:49.853Z,17.77
2018-06-12T21:22:18.694Z,17.03
2018-06-12T21:24:47.461Z,17.70
2018-06-12T21:27:16.260Z,16.67
2018-06-12T21:29:45.091Z,17.47
2018-06-12T21:32:13.867Z,16.57
2018-06-12T21:34:42.640Z,17.17
2018-06-12T21:37:11.501Z,17.97
2018-06-12T21:39:40.245Z,17.80
2018-06-12T21:42:09.033Z,17.57
2018-06-12T21:44:37.904Z,17.73
2018-06-12T21:47:06.688Z,17.27
2018-06-12T21:49:35.459Z,17.10
2018-06-12T21:52:04.268Z,17.70
2018-06-12T21:54:33.089Z,18.13
2018-06-12T21:57:01.864Z,18.33
2018-06-12T21:59:30.623Z,18.00
2018-06-12T22:01:59.452Z,19.13
2018-06-12T22:04:28.248Z,19.43
2018-06-12T22:06:57.159Z,18.73
2018-06-12T22:09:26.031Z,18.50
2018-06-12T22:11:54.845Z,19.00
2018-06-12T22:14:27.881Z,19.13
2018-06-12T22:16:57.397Z,18.30
2018-06-12T22:19:26.366Z,20.43
2018-06-12T22:21:55.148Z,19.50
2018-06-12T22:24:25.385Z,19.90
2018-06-12T22:26:54.189Z,19.37
2018-06-12T22:29:22.978Z,20.57
2018-06-12T22:31:51.758Z,20.63
2018-06-12T22:34:20.546Z,21.23
2018-06-12T22:36:49.372Z,20.47
2018-06-12T22:39:18.138Z,19.93
2018-06-12T22:41:46.952Z,21.13
2018-06-12T22:44:15.733Z,19.70
2018-06-12T22:46:44.531Z,20.97
2018-06-12T22:49:13.327Z,20.00
2018-06-12T22:51:42.231Z,19.10
2018-06-12T22:54:11.064Z,18.73
2018-06-12T22:56:39.823Z,18.67
2018-06-12T22:59:08.597Z,19.83
2018-06-12T23:01:37.435Z,20.00
2018-06-12T23:04:06.305Z,19.63
2018-06-12T23:06:35.113Z,18.40
2018-06-12T23:09:04.291Z,19.93
2018-06-12T23:11:33.073Z,18.77
2018-06-12T23:14:02.006Z,18.83
2018-06-12T23:16:30.761Z,17.40
2018-06-12T23:18:59.582Z,18.40
2018-06-12T23:21:47.942Z,19.07
2018-06-12T23:24:16.772Z,18.07
2018-06-12T23:26:45.654Z,18.47
2018-06-12T23:29:14.467Z,18.90
2018-06-12T23:31:43.256Z,18.40
2018-06-12T23:34:12.126Z,18.13
2018-06-12T23:36:40.944Z,18.63
2018-06-12T23:39:10.053Z,18.27
2018-06-12T23:41:38.843Z,18.67
2018-06-12T23:44:07.701Z,18.70
2018-06-12T23:46:36.466Z,18.93
2018-06-12T23:49:05.296Z,18.43
2018-06-12T23:51:34.102Z,19.23
2018-06-12T23:54:03.023Z,20.10
2018-06-12T23:56:31.871Z,19.20
2018-06-12T23:59:00.656Z,19.10
